createdAt,value
2022-12-10T00:00:09.330Z,22.65
2022-12-10T00:00:41.135Z,20.85
2022-12-10T00:01:15.342Z,20.85
2022-12-10T00:01:47.593Z,19.00
2022-12-10T00:02:19.278Z,21.90
2022-12-10T00:02:50.969Z,22.08
2022-12-10T00:03:22.489Z,21.02
2022-12-10T00:03:54.638Z,21.92
2022-12-10T00:04:26.123Z,21.30
2022-12-10T00:04:57.799Z,21.26
2022-12-10T00:05:29.346Z,21.50
2022-12-10T00:06:02.893Z,21.88
2022-12-10T00:06:36.792Z,21.34
2022-12-10T00:07:08.376Z,21.90
2022-12-10T00:07:39.949Z,23.20
2022-12-10T00:08:11.557Z,22.42
2022-12-10T00:08:43.122Z,21.13
2022-12-10T00:09:18.356Z,20.60
2022-12-10T00:09:49.825Z,20.20
2022-12-10T00:10:21.294Z,19.25
2022-12-10T00:10:52.827Z,21.58
2022-12-10T00:11:24.675Z,23.05
2022-12-10T00:11:56.159Z,19.50
2022-12-10T00:12:27.688Z,19.55
2022-12-10T00:12:59.139Z,20.00
2022-12-10T00:13:30.801Z,20.33
2022-12-10T00:14:02.302Z,21.25
2022-12-10T00:14:33.918Z,21.48
2022-12-10T00:15:05.705Z,20.67
2022-12-10T00:15:37.295Z,21.48
2022-12-10T00:16:11.384Z,18.23
2022-12-10T00:16:43.112Z,19.95
2022-12-10T00:17:14.689Z,21.55
2022-12-10T00:17:46.254Z,20.15
2022-12-10T00:18:17.733Z,20.13
2022-12-10T00:18:49.725Z,20.33
2022-12-10T00:19:21.182Z,21.95
2022-12-10T00:19:52.638Z,21.33
2022-12-10T00:20:24.109Z,20.75
2022-12-10T00:20:55.973Z,20.55
2022-12-10T00:21:32.681Z,21.33
2022-12-10T00:22:04.314Z,20.23
2022-12-10T00:22:36.084Z,21.98
2022-12-10T00:23:07.578Z,21.73
2022-12-10T00:23:39.643Z,22.08
2022-12-10T00:24:11.280Z,20.17
2022-12-10T00:24:42.765Z,20.92
2022-12-10T00:25:14.220Z,21.10
2022-12-10T00:25:45.665Z,23.38
2022-12-10T00:26:33.178Z,21.42
2022-12-10T00:27:04.636Z,21.05
2022-12-10T00:27:36.145Z,21.40
2022-12-10T00:28:07.689Z,20.45
2022-12-10T00:28:40.398Z,22.45
2022-12-10T00:29:13.145Z,25.02
2022-12-10T00:29:44.682Z,23.90
2022-12-10T00:30:16.518Z,24.30
2022-12-10T00:30:47.968Z,22.00
2022-12-10T00:31:21.915Z,24.65
2022-12-10T00:31:53.574Z,23.05
2022-12-10T00:32:25.411Z,20.60
2022-12-10T00:32:56.917Z,22.30
2022-12-10T00:33:28.498Z,24.27
2022-12-10T00:34:02.263Z,23.95
2022-12-10T00:34:33.878Z,23.62
2022-12-10T00:35:06.047Z,22.20
2022-12-10T00:35:37.786Z,20.58
2022-12-10T00:36:15.038Z,21.55
2022-12-10T00:36:49.181Z,20.42
2022-12-10T00:37:21.969Z,22.83
2022-12-10T00:37:54.242Z,21.88
2022-12-10T00:38:26.922Z,23.60
2022-12-10T00:38:58.583Z,24.38
2022-12-10T00:39:32.858Z,23.92
2022-12-10T00:40:05.478Z,22.50
2022-12-10T00:40:37.180Z,23.65
2022-12-10T00:41:09.354Z,22.96
2022-12-10T00:41:40.917Z,24.00
2022-12-10T00:42:12.449Z,24.50
2022-12-10T00:42:43.941Z,23.17
2022-12-10T00:43:15.466Z,23.05
2022-12-10T00:43:47.693Z,23.05
2022-12-10T00:44:19.316Z,25.67
2022-12-10T00:44:51.498Z,21.63
2022-12-10T00:45:22.994Z,23.67
2022-12-10T00:45:55.458Z,22.27
2022-12-10T00:46:26.996Z,21.68
2022-12-10T00:46:58.616Z,22.92
2022-12-10T00:47:31.739Z,25.64
2022-12-10T00:48:03.391Z,24.67
2022-12-10T00:48:35.400Z,23.83
2022-12-10T00:49:06.917Z,25.40
2022-12-10T00:49:38.410Z,26.25
2022-12-10T00:50:10.175Z,24.17
2022-12-10T00:50:42.041Z,25.10
2022-12-10T00:51:19.045Z,22.94
2022-12-10T00:51:50.680Z,25.67
2022-12-10T00:52:22.230Z,23.02
2022-12-10T00:52:53.724Z,27.00
2022-12-10T00:53:26.197Z,24.42
2022-12-10T00:53:59.466Z,25.98
2022-12-10T00:54:31.212Z,25.24
2022-12-10T00:55:03.200Z,24.95
2022-12-10T00:55:34.676Z,27.80
2022-12-10T00:56:06.854Z,28.10
2022-12-10T00:56:38.370Z,28.54
2022-12-10T00:57:09.897Z,25.85
2022-12-10T00:57:41.382Z,28.02
2022-12-10T00:58:13.441Z,28.48
2022-12-10T00:58:45.035Z,30.04
2022-12-10T00:59:16.674Z,28.75
2022-12-10T00:59:48.297Z,26.48
2022-12-10T01:00:19.943Z,27.92
2022-12-10T01:00:51.476Z,28.77
2022-12-10T01:01:24.830Z,27.94
2022-12-10T01:01:57.099Z,26.76
2022-12-10T01:02:28.713Z,26.58
2022-12-10T01:03:00.244Z,27.75
2022-12-10T01:03:31.748Z,27.42
2022-12-10T01:04:09.378Z,29.48
2022-12-10T01:04:40.878Z,27.52
2022-12-10T01:05:13.671Z,27.83
2022-12-10T01:05:45.396Z,26.30
2022-12-10T01:06:21.007Z,26.68
2022-12-10T01:06:54.318Z,25.95
2022-12-10T01:07:27.453Z,28.42
2022-12-10T01:07:59.164Z,29.60
2022-12-10T01:08:30.647Z,27.50
2022-12-10T01:09:05.719Z,27.45
2022-12-10T01:09:37.193Z,27.40
2022-12-10T01:10:09.344Z,26.48
2022-12-10T01:10:40.988Z,31.04
2022-12-10T01:11:14.653Z,26.92
2022-12-10T01:11:47.589Z,26.88
2022-12-10T01:12:19.179Z,27.55
2022-12-10T01:12:50.712Z,26.74
2022-12-10T01:13:22.213Z,30.72
2022-12-10T01:13:54.006Z,26.86
2022-12-10T01:14:28.662Z,26.72
2022-12-10T01:15:00.404Z,30.08
2022-12-10T01:15:31.904Z,29.60
2022-12-10T01:16:04.677Z,27.20
2022-12-10T01:16:36.363Z,26.02
2022-12-10T01:17:08.469Z,28.62
2022-12-10T01:17:40.075Z,27.85
2022-12-10T01:18:11.697Z,30.02
2022-12-10T01:18:43.209Z,30.20
2022-12-10T01:19:14.689Z,30.82
2022-12-10T01:19:46.223Z,27.94
2022-12-10T01:20:17.767Z,31.24
2022-12-10T01:20:49.782Z,30.54
2022-12-10T01:21:21.713Z,29.27
2022-12-10T01:21:54.344Z,29.70
2022-12-10T01:22:25.816Z,28.82
2022-12-10T01:22:57.324Z,29.52
2022-12-10T01:23:29.982Z,29.35
2022-12-10T01:24:01.650Z,29.46
2022-12-10T01:24:33.456Z,28.67
2022-12-10T01:25:05.453Z,31.25
2022-12-10T01:25:37.108Z,31.18
2022-12-10T01:26:11.724Z,28.73
2022-12-10T01:26:43.417Z,30.32
2022-12-10T01:27:14.982Z,30.02
2022-12-10T01:27:46.469Z,29.27
2022-12-10T01:28:17.962Z,29.90
2022-12-10T01:28:50.750Z,31.80
2022-12-10T01:29:22.333Z,30.52
2022-12-10T01:29:53.800Z,29.50
2022-12-10T01:30:25.253Z,29.08
2022-12-10T01:30:56.734Z,29.50
2022-12-10T01:31:34.451Z,30.34
2022-12-10T01:32:05.978Z,28.10
2022-12-10T01:32:37.578Z,30.28
2022-12-10T01:33:09.100Z,29.48
2022-12-10T01:33:41.301Z,28.50
2022-12-10T01:34:14.866Z,27.84
2022-12-10T01:34:46.481Z,30.18
2022-12-10T01:35:18.045Z,27.92
2022-12-10T01:35:49.512Z,28.18
2022-12-10T01:36:24.291Z,29.56
2022-12-10T01:36:55.832Z,28.30
2022-12-10T01:37:27.300Z,28.92
2022-12-10T01:37:59.023Z,28.88
2022-12-10T01:38:30.563Z,27.90
2022-12-10T01:39:04.765Z,26.50
2022-12-10T01:39:36.293Z,28.30
2022-12-10T01:40:08.824Z,27.48
2022-12-10T01:40:40.601Z,27.83
2022-12-10T01:41:16.598Z,26.75
2022-12-10T01:41:54.218Z,27.70
2022-12-10T01:42:25.681Z,27.15
2022-12-10T01:43:00.370Z,28.45
2022-12-10T01:43:51.302Z,27.84
2022-12-10T01:44:22.746Z,28.58
2022-12-10T01:45:00.097Z,26.33
2022-12-10T01:45:32.942Z,26.08
2022-12-10T01:46:04.656Z,25.90
2022-12-10T01:46:40.937Z,23.70
2022-12-10T01:47:12.471Z,24.52
2022-12-10T01:47:44.028Z,24.96
2022-12-10T01:48:15.548Z,27.04
2022-12-10T01:48:47.334Z,26.50
2022-12-10T01:49:21.691Z,26.00
2022-12-10T01:49:53.408Z,27.08
2022-12-10T01:50:24.882Z,25.58
2022-12-10T01:50:56.353Z,25.32
2022-12-10T01:51:30.661Z,24.90
2022-12-10T01:52:02.717Z,28.02
2022-12-10T01:52:34.665Z,27.02
2022-12-10T01:53:06.768Z,25.10
2022-12-10T01:53:38.257Z,26.08
2022-12-10T01:54:13.537Z,27.13
2022-12-10T01:54:46.769Z,26.38
2022-12-10T01:55:44.669Z,27.00
2022-12-10T01:56:19.848Z,25.14
2022-12-10T01:57:00.194Z,22.85
2022-12-10T01:57:31.744Z,26.35
2022-12-10T01:58:03.239Z,27.48
2022-12-10T01:58:34.750Z,27.32
2022-12-10T01:59:06.524Z,27.66
2022-12-10T01:59:39.150Z,26.04
2022-12-10T02:00:11.549Z,27.48
2022-12-10T02:00:52.834Z,26.52
2022-12-10T02:01:29.830Z,26.56
2022-12-10T02:02:10.030Z,25.08
2022-12-10T02:02:55.867Z,26.63
2022-12-10T02:03:55.140Z,26.72
2022-12-10T02:04:53.235Z,24.12
2022-12-10T02:05:33.677Z,24.36
2022-12-10T02:06:36.937Z,25.30
2022-12-10T02:07:26.211Z,22.50
2022-12-10T02:08:06.847Z,23.70
2022-12-10T02:08:59.959Z,25.33
2022-12-10T02:09:57.420Z,23.80
2022-12-10T02:10:31.546Z,24.20
2022-12-10T02:11:28.356Z,25.38
2022-12-10T02:12:09.861Z,25.56
2022-12-10T02:12:48.382Z,27.00
2022-12-10T02:13:38.150Z,26.55
2022-12-10T02:14:18.302Z,23.20
2022-12-10T02:15:01.787Z,26.52
2022-12-10T02:15:38.595Z,24.45
2022-12-10T02:16:15.817Z,24.83
2022-12-10T02:16:57.260Z,24.52
2022-12-10T02:17:37.954Z,25.20
2022-12-10T02:18:30.276Z,25.15
2022-12-10T02:19:08.274Z,23.83
2022-12-10T02:19:44.330Z,25.28
2022-12-10T02:20:32.090Z,26.12
2022-12-10T02:21:09.644Z,23.26
2022-12-10T02:21:42.243Z,26.92
2022-12-10T02:22:15.253Z,26.68
2022-12-10T02:22:50.954Z,26.33
2022-12-10T02:23:29.296Z,26.12
2022-12-10T02:24:04.248Z,26.08
2022-12-10T02:24:37.776Z,26.26
2022-12-10T02:25:13.357Z,26.22
2022-12-10T02:26:06.170Z,27.35
2022-12-10T02:26:51.240Z,24.96
2022-12-10T02:27:34.045Z,23.83
2022-12-10T02:28:27.115Z,24.77
2022-12-10T02:29:12.461Z,25.85
2022-12-10T02:29:45.213Z,26.63
2022-12-10T02:30:16.870Z,24.56
2022-12-10T02:30:50.404Z,25.50
2022-12-10T02:31:28.170Z,26.90
2022-12-10T02:32:12.461Z,26.22
2022-12-10T02:32:45.632Z,27.96
2022-12-10T02:33:19.677Z,28.30
2022-12-10T02:33:54.130Z,27.48
2022-12-10T02:34:28.119Z,27.52
2022-12-10T02:35:08.245Z,27.06
2022-12-10T02:35:42.028Z,27.08
2022-12-10T02:36:15.335Z,29.02
2022-12-10T02:36:48.786Z,28.95
2022-12-10T02:37:36.470Z,26.66
2022-12-10T02:38:16.048Z,26.26
2022-12-10T02:39:25.969Z,24.14
2022-12-10T02:40:05.589Z,23.90
2022-12-10T02:40:44.017Z,26.10
2022-12-10T02:41:19.847Z,27.62
2022-12-10T02:41:54.738Z,26.60
2022-12-10T02:42:28.553Z,26.52
2022-12-10T02:43:00.218Z,25.90
2022-12-10T02:43:31.775Z,27.16
2022-12-10T02:44:07.190Z,26.70
2022-12-10T02:44:40.116Z,27.35
2022-12-10T02:45:12.094Z,27.06
2022-12-10T02:45:45.849Z,27.96
2022-12-10T02:46:18.909Z,25.00
2022-12-10T02:46:55.864Z,28.02
2022-12-10T02:47:29.656Z,27.58
2022-12-10T02:48:03.201Z,26.42
2022-12-10T02:48:41.381Z,25.68
2022-12-10T02:49:15.425Z,27.90
2022-12-10T02:49:48.970Z,26.98
2022-12-10T02:50:21.184Z,27.58
2022-12-10T02:50:54.458Z,26.55
2022-12-10T02:51:25.927Z,26.23
2022-12-10T02:51:57.835Z,26.72
2022-12-10T02:52:29.666Z,28.42
2022-12-10T02:53:01.962Z,29.14
2022-12-10T02:53:33.438Z,27.08
2022-12-10T02:54:07.622Z,27.24
2022-12-10T02:54:44.831Z,30.02
2022-12-10T02:55:21.070Z,26.94
2022-12-10T02:56:23.330Z,26.80
2022-12-10T02:56:59.874Z,26.68
2022-12-10T02:57:34.304Z,28.56
2022-12-10T02:58:39.523Z,27.20
2022-12-10T02:59:18.908Z,26.33
2022-12-10T03:00:09.725Z,26.06
2022-12-10T03:01:01.997Z,24.86
2022-12-10T03:01:49.054Z,29.12
2022-12-10T03:02:26.265Z,27.10
2022-12-10T03:03:26.417Z,25.06
2022-12-10T03:04:02.432Z,25.38
2022-12-10T03:04:46.794Z,26.88
2022-12-10T03:05:27.599Z,26.65
2022-12-10T03:06:31.361Z,26.73
2022-12-10T03:07:08.294Z,25.74
2022-12-10T03:07:56.608Z,25.70
2022-12-10T03:08:31.889Z,27.10
2022-12-10T03:09:35.413Z,25.15
2022-12-10T03:10:33.379Z,25.46
2022-12-10T03:11:14.729Z,25.10
2022-12-10T03:11:47.308Z,24.64
2022-12-10T03:12:28.403Z,25.64
2022-12-10T03:13:01.947Z,24.64
2022-12-10T03:13:37.363Z,26.42
2022-12-10T03:14:20.095Z,27.00
2022-12-10T03:14:51.816Z,24.98
2022-12-10T03:15:25.186Z,25.60
2022-12-10T03:15:57.265Z,26.76
2022-12-10T03:16:51.372Z,27.08
2022-12-10T03:17:23.195Z,25.08
2022-12-10T03:17:55.904Z,26.46
2022-12-10T03:18:28.354Z,25.80
2022-12-10T03:19:05.622Z,26.32
2022-12-10T03:19:40.716Z,28.02
2022-12-10T03:20:14.365Z,27.86
2022-12-10T03:20:46.750Z,26.00
2022-12-10T03:21:19.695Z,26.56
2022-12-10T03:21:52.550Z,28.20
2022-12-10T03:22:24.229Z,27.14
2022-12-10T03:22:56.257Z,26.44
2022-12-10T03:23:28.156Z,26.38
2022-12-10T03:23:59.714Z,27.14
2022-12-10T03:24:31.651Z,26.42
2022-12-10T03:25:03.451Z,28.73
2022-12-10T03:25:35.744Z,26.64
2022-12-10T03:26:09.626Z,30.24
2022-12-10T03:26:42.860Z,25.98
2022-12-10T03:27:15.238Z,28.84
2022-12-10T03:27:50.724Z,27.66
2022-12-10T03:28:22.532Z,26.16
2022-12-10T03:28:57.933Z,26.82
2022-12-10T03:29:39.578Z,28.58
2022-12-10T03:30:11.719Z,28.70
2022-12-10T03:30:44.294Z,29.26
2022-12-10T03:31:16.766Z,27.54
2022-12-10T03:31:48.677Z,27.00
2022-12-10T03:32:22.466Z,28.12
2022-12-10T03:32:54.189Z,29.28
2022-12-10T03:33:25.715Z,26.22
2022-12-10T03:33:57.254Z,27.60
2022-12-10T03:34:28.925Z,26.46
2022-12-10T03:35:01.291Z,26.52
2022-12-10T03:35:33.408Z,28.02
2022-12-10T03:36:07.961Z,29.26
2022-12-10T03:36:40.099Z,26.86
2022-12-10T03:37:13.155Z,25.00
2022-12-10T03:37:44.979Z,26.52
2022-12-10T03:38:16.566Z,25.40
2022-12-10T03:38:48.251Z,26.44
2022-12-10T03:39:19.937Z,27.46
2022-12-10T03:39:51.744Z,29.06
2022-12-10T03:40:24.723Z,27.36
2022-12-10T03:40:56.211Z,27.78
2022-12-10T03:41:27.717Z,27.96
2022-12-10T03:41:59.235Z,27.84
2022-12-10T03:42:30.845Z,28.50
2022-12-10T03:43:02.566Z,27.64
2022-12-10T03:43:34.113Z,28.40
2022-12-10T03:44:05.813Z,28.46
2022-12-10T03:44:39.259Z,29.66
2022-12-10T03:45:10.970Z,28.92
2022-12-10T03:45:42.578Z,29.34
2022-12-10T03:46:14.178Z,28.72
2022-12-10T03:46:45.674Z,27.14
2022-12-10T03:47:17.290Z,27.02
2022-12-10T03:47:50.318Z,25.50
2022-12-10T03:48:21.854Z,29.70
2022-12-10T03:48:53.861Z,27.74
2022-12-10T03:49:25.803Z,28.62
2022-12-10T03:49:57.269Z,29.06
2022-12-10T03:50:28.736Z,28.54
2022-12-10T03:51:00.364Z,29.48
2022-12-10T03:51:31.863Z,29.18
2022-12-10T03:52:04.325Z,30.15
2022-12-10T03:52:35.998Z,28.94
2022-12-10T03:53:07.481Z,29.40
2022-12-10T03:53:39.022Z,27.54
2022-12-10T03:54:10.503Z,29.68
2022-12-10T03:54:42.450Z,31.58
2022-12-10T03:55:13.969Z,31.18
2022-12-10T03:55:45.422Z,30.10
2022-12-10T03:56:17.978Z,32.34
2022-12-10T03:56:49.695Z,30.26
2022-12-10T03:57:21.833Z,31.80
2022-12-10T03:57:53.352Z,29.02
2022-12-10T03:58:24.971Z,32.16
2022-12-10T03:58:56.952Z,31.00
2022-12-10T03:59:28.460Z,30.84
2022-12-10T04:00:05.553Z,32.26
2022-12-10T04:00:43.650Z,32.13
2022-12-10T04:01:16.424Z,32.68
2022-12-10T04:01:48.051Z,31.76
2022-12-10T04:02:19.653Z,30.76
2022-12-10T04:02:51.158Z,29.54
2022-12-10T04:03:22.623Z,30.06
2022-12-10T04:03:54.271Z,30.98
2022-12-10T04:04:25.916Z,29.38
2022-12-10T04:04:57.553Z,29.36
2022-12-10T04:05:29.099Z,31.25
2022-12-10T04:06:08.202Z,27.98
2022-12-10T04:06:41.596Z,29.16
2022-12-10T04:07:13.997Z,30.74
2022-12-10T04:07:45.532Z,27.92
2022-12-10T04:08:17.147Z,32.70
2022-12-10T04:08:51.843Z,28.48
2022-12-10T04:09:25.846Z,28.83
2022-12-10T04:09:57.347Z,31.14
2022-12-10T04:10:28.914Z,30.42
2022-12-10T04:11:08.137Z,29.76
2022-12-10T04:11:39.733Z,30.94
2022-12-10T04:12:12.025Z,30.45
2022-12-10T04:12:43.531Z,29.94
2022-12-10T04:13:33.873Z,31.20
2022-12-10T04:14:24.328Z,28.50
2022-12-10T04:15:14.311Z,30.08
2022-12-10T04:16:04.388Z,29.73
2022-12-10T04:16:36.431Z,28.44
2022-12-10T04:17:08.154Z,30.46
2022-12-10T04:17:39.649Z,32.38
2022-12-10T04:18:11.160Z,28.34
2022-12-10T04:18:42.690Z,29.85
2022-12-10T04:19:17.160Z,30.92
2022-12-10T04:19:48.711Z,30.00
2022-12-10T04:20:38.570Z,31.90
2022-12-10T04:21:28.581Z,27.86
2022-12-10T04:22:18.594Z,27.65
2022-12-10T04:23:08.584Z,31.84
2022-12-10T04:23:58.801Z,30.32
2022-12-10T04:24:51.075Z,29.14
2022-12-10T04:25:41.472Z,26.26
2022-12-10T04:26:31.656Z,30.02
2022-12-10T04:27:07.081Z,27.96
2022-12-10T04:27:40.130Z,30.72
2022-12-10T04:28:11.718Z,28.62
2022-12-10T04:28:43.821Z,30.90
2022-12-10T04:29:15.267Z,29.98
2022-12-10T04:29:46.757Z,33.70
2022-12-10T04:30:18.334Z,30.30
2022-12-10T04:30:49.884Z,29.56
2022-12-10T04:31:21.415Z,29.82
2022-12-10T04:31:53.126Z,32.62
2022-12-10T04:32:26.459Z,31.12
2022-12-10T04:32:57.934Z,30.46
2022-12-10T04:33:29.535Z,27.80
2022-12-10T04:34:01.000Z,31.98
2022-12-10T04:34:32.602Z,31.75
2022-12-10T04:35:04.871Z,31.12
2022-12-10T04:35:36.427Z,29.22
2022-12-10T04:36:09.724Z,31.74
2022-12-10T04:36:41.251Z,31.74
2022-12-10T04:37:13.001Z,31.40
2022-12-10T04:37:44.489Z,31.46
2022-12-10T04:38:16.031Z,30.74
2022-12-10T04:38:47.502Z,34.18
2022-12-10T04:39:19.457Z,32.10
2022-12-10T04:39:51.565Z,31.22
2022-12-10T04:40:23.026Z,32.44
2022-12-10T04:40:54.537Z,30.84
2022-12-10T04:41:26.109Z,32.08
2022-12-10T04:41:57.881Z,30.72
2022-12-10T04:42:29.369Z,29.77
2022-12-10T04:43:00.952Z,30.42
2022-12-10T04:43:32.397Z,29.30
2022-12-10T04:44:03.856Z,29.42
2022-12-10T04:44:35.667Z,29.14
2022-12-10T04:45:07.465Z,28.55
2022-12-10T04:45:39.035Z,30.74
2022-12-10T04:46:11.573Z,29.80
2022-12-10T04:46:44.391Z,29.74
2022-12-10T04:47:16.130Z,27.80
2022-12-10T04:47:47.750Z,29.22
2022-12-10T04:48:19.219Z,28.76
2022-12-10T04:48:51.412Z,27.20
2022-12-10T04:49:23.427Z,29.30
2022-12-10T04:49:55.631Z,27.52
2022-12-10T04:50:27.155Z,27.92
2022-12-10T04:50:58.638Z,28.50
2022-12-10T04:51:30.524Z,30.08
2022-12-10T04:52:02.027Z,30.36
2022-12-10T04:52:34.269Z,26.22
2022-12-10T04:53:05.814Z,31.04
2022-12-10T04:53:37.285Z,29.77
2022-12-10T04:54:09.432Z,29.54
2022-12-10T04:54:41.405Z,30.54
2022-12-10T04:55:12.965Z,28.33
2022-12-10T04:55:44.510Z,29.22
2022-12-10T04:56:16.058Z,31.14
2022-12-10T04:56:47.587Z,27.90
2022-12-10T04:57:19.158Z,33.56
2022-12-10T04:57:50.617Z,29.80
2022-12-10T04:58:22.485Z,29.88
2022-12-10T04:58:56.291Z,29.32
2022-12-10T04:59:27.790Z,30.86
2022-12-10T05:00:00.947Z,30.44
2022-12-10T05:00:32.416Z,28.82
2022-12-10T05:01:09.026Z,29.90
2022-12-10T05:01:40.764Z,30.18
2022-12-10T05:02:12.987Z,29.16
2022-12-10T05:02:44.727Z,31.28
2022-12-10T05:03:16.193Z,27.25
2022-12-10T05:03:47.729Z,30.60
2022-12-10T05:04:19.819Z,29.50
2022-12-10T05:04:51.498Z,31.65
2022-12-10T05:05:22.959Z,32.22
2022-12-10T05:05:54.407Z,35.18
2022-12-10T05:06:25.870Z,31.84
2022-12-10T05:06:57.405Z,31.22
2022-12-10T05:07:30.637Z,32.26
2022-12-10T05:08:02.555Z,31.38
2022-12-10T05:08:35.033Z,31.76
2022-12-10T05:09:06.852Z,32.98
2022-12-10T05:09:38.756Z,29.50
2022-12-10T05:10:10.888Z,31.86
2022-12-10T05:10:42.821Z,31.80
2022-12-10T05:11:17.035Z,30.28
2022-12-10T05:11:48.481Z,33.94
2022-12-10T05:12:19.947Z,31.82
2022-12-10T05:12:51.656Z,29.70
2022-12-10T05:13:23.448Z,30.80
2022-12-10T05:13:55.309Z,31.22
2022-12-10T05:14:26.812Z,31.84
2022-12-10T05:14:58.281Z,30.04
2022-12-10T05:15:29.759Z,31.42
2022-12-10T05:16:05.923Z,30.46
2022-12-10T05:16:37.520Z,31.74
2022-12-10T05:17:09.036Z,31.74
2022-12-10T05:17:40.592Z,30.62
2022-12-10T05:18:12.077Z,30.42
2022-12-10T05:18:44.066Z,32.88
2022-12-10T05:19:15.504Z,29.94
2022-12-10T05:19:46.947Z,32.02
2022-12-10T05:20:18.421Z,29.54
2022-12-10T05:20:50.243Z,30.32
2022-12-10T05:21:22.857Z,30.48
2022-12-10T05:22:12.712Z,32.26
2022-12-10T05:23:02.856Z,29.44
2022-12-10T05:23:37.414Z,29.86
2022-12-10T05:24:09.440Z,28.96
2022-12-10T05:24:41.386Z,30.70
2022-12-10T05:25:12.828Z,30.24
2022-12-10T05:25:53.806Z,31.06
2022-12-10T05:26:25.452Z,30.30
2022-12-10T05:26:58.200Z,31.86
2022-12-10T05:27:33.625Z,31.62
2022-12-10T05:28:05.080Z,30.78
2022-12-10T05:28:41.972Z,31.62
2022-12-10T05:29:14.069Z,29.15
2022-12-10T05:29:45.533Z,28.80
2022-12-10T05:30:16.982Z,29.14
2022-12-10T05:30:48.811Z,30.90
2022-12-10T05:31:25.905Z,31.20
2022-12-10T05:31:57.412Z,30.44
2022-12-10T05:32:29.005Z,29.96
2022-12-10T05:33:01.001Z,28.54
2022-12-10T05:33:32.967Z,29.72
2022-12-10T05:34:04.465Z,29.72
2022-12-10T05:34:36.038Z,31.88
2022-12-10T05:35:07.972Z,27.42
2022-12-10T05:35:39.491Z,29.84
2022-12-10T05:36:13.049Z,29.27
2022-12-10T05:36:44.497Z,32.10
2022-12-10T05:37:15.976Z,28.92
2022-12-10T05:37:47.673Z,30.58
2022-12-10T05:38:19.117Z,31.02
2022-12-10T05:38:51.145Z,30.38
2022-12-10T05:39:22.609Z,32.16
2022-12-10T05:39:54.148Z,29.98
2022-12-10T05:40:25.588Z,30.14
2022-12-10T05:41:02.334Z,31.80
2022-12-10T05:41:36.736Z,32.02
2022-12-10T05:42:08.272Z,31.76
2022-12-10T05:42:39.748Z,31.94
2022-12-10T05:43:11.196Z,32.80
2022-12-10T05:43:44.658Z,32.50
2022-12-10T05:44:16.132Z,28.84
2022-12-10T05:44:47.585Z,34.18
2022-12-10T05:45:19.293Z,33.26
2022-12-10T05:45:50.794Z,30.04
2022-12-10T05:46:26.256Z,34.10
2022-12-10T05:46:57.872Z,32.04
2022-12-10T05:47:29.483Z,32.48
2022-12-10T05:48:01.895Z,32.70
2022-12-10T05:48:34.562Z,30.55
2022-12-10T05:49:06.997Z,32.14
2022-12-10T05:49:38.526Z,32.18
2022-12-10T05:50:10.372Z,32.84
2022-12-10T05:50:42.564Z,33.20
2022-12-10T05:51:16.388Z,31.22
2022-12-10T05:51:47.842Z,31.34
2022-12-10T05:52:19.369Z,32.78
2022-12-10T05:52:53.622Z,33.00
2022-12-10T05:53:25.928Z,32.78
2022-12-10T05:53:58.771Z,32.14
2022-12-10T05:54:30.221Z,32.12
2022-12-10T05:55:01.678Z,29.30
2022-12-10T05:55:33.863Z,33.05
2022-12-10T05:56:11.312Z,33.54
2022-12-10T05:56:43.030Z,36.24
2022-12-10T05:57:14.525Z,32.12
2022-12-10T05:57:46.045Z,32.00
2022-12-10T05:58:17.582Z,36.02
2022-12-10T05:58:51.599Z,34.75
2022-12-10T05:59:23.261Z,31.02
2022-12-10T05:59:54.758Z,35.60
2022-12-10T06:00:27.657Z,33.76
2022-12-10T06:00:59.461Z,32.92
2022-12-10T06:01:33.616Z,34.94
2022-12-10T06:02:05.069Z,34.60
2022-12-10T06:02:36.882Z,35.24
2022-12-10T06:03:09.065Z,32.68
2022-12-10T06:03:40.773Z,33.66
2022-12-10T06:04:13.085Z,31.58
2022-12-10T06:04:44.867Z,36.10
2022-12-10T06:05:16.882Z,36.96
2022-12-10T06:05:48.401Z,33.62
2022-12-10T06:06:30.744Z,35.18
2022-12-10T06:07:05.463Z,34.80
2022-12-10T06:07:41.319Z,31.48
2022-12-10T06:08:12.851Z,34.20
2022-12-10T06:08:44.306Z,35.44
2022-12-10T06:09:15.857Z,33.58
2022-12-10T06:09:47.351Z,36.40
2022-12-10T06:10:18.841Z,36.40
2022-12-10T06:10:50.389Z,36.74
2022-12-10T06:11:22.631Z,35.36
2022-12-10T06:11:54.101Z,35.04
2022-12-10T06:12:26.420Z,34.50
2022-12-10T06:12:57.936Z,35.48
2022-12-10T06:13:29.421Z,33.50
2022-12-10T06:14:02.585Z,32.50
2022-12-10T06:14:34.052Z,37.74
2022-12-10T06:15:06.680Z,36.44
2022-12-10T06:15:41.011Z,36.36
2022-12-10T06:16:14.132Z,37.58
2022-12-10T06:16:45.652Z,36.16
2022-12-10T06:17:17.167Z,37.06
2022-12-10T06:17:48.652Z,35.70
2022-12-10T06:18:20.125Z,32.72
2022-12-10T06:18:51.903Z,35.52
2022-12-10T06:19:23.428Z,36.70
2022-12-10T06:19:54.976Z,37.04
2022-12-10T06:20:27.094Z,36.90
2022-12-10T06:20:58.550Z,36.32
2022-12-10T06:21:31.150Z,35.98
2022-12-10T06:22:02.610Z,37.18
2022-12-10T06:22:34.865Z,37.16
2022-12-10T06:23:06.814Z,35.00
2022-12-10T06:23:39.366Z,35.97
2022-12-10T06:24:10.926Z,35.24
2022-12-10T06:24:42.390Z,35.60
2022-12-10T06:25:14.219Z,36.16
2022-12-10T06:25:45.798Z,34.53
2022-12-10T06:26:21.258Z,36.13
2022-12-10T06:26:55.561Z,34.40
2022-12-10T06:27:30.862Z,33.96
2022-12-10T06:28:02.636Z,33.14
2022-12-10T06:28:34.135Z,35.58
2022-12-10T06:29:05.907Z,37.58
2022-12-10T06:29:37.470Z,35.52
2022-12-10T06:30:09.952Z,33.80
2022-12-10T06:30:43.871Z,33.96
2022-12-10T06:31:16.092Z,33.64
2022-12-10T06:31:47.633Z,34.47
2022-12-10T06:32:19.076Z,32.55
2022-12-10T06:32:50.820Z,30.78
2022-12-10T06:33:22.833Z,37.98
2022-12-10T06:33:55.600Z,33.90
2022-12-10T06:34:27.140Z,33.98
2022-12-10T06:34:58.897Z,33.38
2022-12-10T06:35:30.381Z,33.12
2022-12-10T06:36:05.372Z,33.90
2022-12-10T06:36:36.868Z,34.56
2022-12-10T06:37:08.333Z,36.52
2022-12-10T06:37:39.895Z,36.26
2022-12-10T06:38:11.438Z,35.47
2022-12-10T06:38:43.168Z,33.64
2022-12-10T06:39:14.650Z,35.26
2022-12-10T06:39:46.113Z,35.96
2022-12-10T06:40:17.751Z,31.80
2022-12-10T06:40:49.896Z,34.50
2022-12-10T06:41:21.666Z,36.26
2022-12-10T06:41:58.755Z,35.12
2022-12-10T06:42:31.018Z,35.70
2022-12-10T06:43:02.495Z,33.78
2022-12-10T06:43:34.254Z,35.50
2022-12-10T06:44:08.842Z,36.10
2022-12-10T06:44:40.316Z,34.60
2022-12-10T06:45:13.184Z,35.10
2022-12-10T06:45:44.740Z,34.70
2022-12-10T06:46:18.553Z,34.48
2022-12-10T06:46:50.099Z,34.48
2022-12-10T06:47:21.637Z,36.90
2022-12-10T06:47:53.365Z,34.75
2022-12-10T06:48:24.966Z,33.42
2022-12-10T06:48:56.812Z,33.22
2022-12-10T06:49:28.379Z,32.84
2022-12-10T06:49:59.909Z,36.24
2022-12-10T06:50:31.379Z,37.00
2022-12-10T06:51:04.430Z,33.24
2022-12-10T06:51:35.961Z,35.08
2022-12-10T06:52:08.057Z,36.00
2022-12-10T06:52:39.511Z,34.38
2022-12-10T06:53:10.987Z,36.60
2022-12-10T06:53:42.648Z,34.58
2022-12-10T06:54:14.404Z,35.54
2022-12-10T06:54:46.137Z,33.40
2022-12-10T06:55:17.738Z,33.84
2022-12-10T06:55:49.214Z,33.44
2022-12-10T06:56:21.167Z,36.48
2022-12-10T06:56:52.721Z,33.48
2022-12-10T06:57:24.208Z,34.50
2022-12-10T06:57:57.364Z,34.55
2022-12-10T06:58:29.740Z,33.80
2022-12-10T06:59:05.323Z,34.58
2022-12-10T06:59:36.898Z,32.98
2022-12-10T07:00:10.415Z,34.40
2022-12-10T07:00:41.952Z,33.45
2022-12-10T07:01:27.097Z,35.58
2022-12-10T07:01:58.923Z,33.20
2022-12-10T07:02:30.760Z,33.76
2022-12-10T07:03:02.513Z,35.42
2022-12-10T07:03:34.159Z,34.02
2022-12-10T07:04:05.617Z,31.98
2022-12-10T07:04:37.084Z,34.92
2022-12-10T07:05:09.014Z,35.78
2022-12-10T07:05:40.491Z,35.98
2022-12-10T07:06:12.985Z,34.38
2022-12-10T07:06:44.522Z,34.88
2022-12-10T07:07:16.029Z,34.88
2022-12-10T07:07:47.629Z,36.30
2022-12-10T07:08:20.406Z,34.08
2022-12-10T07:08:52.091Z,33.34
2022-12-10T07:09:23.554Z,32.88
2022-12-10T07:09:55.410Z,34.38
2022-12-10T07:10:26.865Z,34.34
2022-12-10T07:10:58.511Z,31.42
2022-12-10T07:11:31.563Z,35.22
2022-12-10T07:12:03.207Z,34.84
2022-12-10T07:12:34.721Z,32.58
2022-12-10T07:13:06.160Z,37.40
2022-12-10T07:13:38.317Z,35.72
2022-12-10T07:14:15.221Z,32.30
2022-12-10T07:14:46.665Z,33.08
2022-12-10T07:15:18.237Z,35.25
2022-12-10T07:15:49.901Z,32.84
2022-12-10T07:16:26.813Z,33.38
2022-12-10T07:16:58.523Z,34.00